createdAt,value
2023-05-19T00:01:49.274Z,10.69
2023-05-19T00:04:16.603Z,10.40
2023-05-19T00:06:46.879Z,10.42
2023-05-19T00:09:13.519Z,10.46
2023-05-19T00:11:40.381Z,10.48
2023-05-19T00:14:09.411Z,10.31
2023-05-19T00:16:38.164Z,10.41
2023-05-19T00:19:05.950Z,10.36
2023-05-19T00:21:32.903Z,10.54
2023-05-19T00:23:59.338Z,10.36
2023-05-19T00:26:27.607Z,10.15
2023-05-19T00:28:54.269Z,10.24
2023-05-19T00:31:20.779Z,10.36
2023-05-19T00:33:47.245Z,10.10
2023-05-19T00:36:13.781Z,10.13
2023-05-19T00:38:40.349Z,10.28
2023-05-19T00:41:07.392Z,10.21
2023-05-19T00:43:36.738Z,10.19
2023-05-19T00:46:03.815Z,10.17
2023-05-19T00:48:30.391Z,10.25
2023-05-19T00:51:02.578Z,10.27
2023-05-19T00:53:29.417Z,10.21
2023-05-19T00:55:56.274Z,10.30
2023-05-19T00:58:23.927Z,10.03
2023-05-19T01:00:50.791Z,10.08
2023-05-19T01:03:20.665Z,10.05
2023-05-19T01:05:53.630Z,10.07
2023-05-19T01:08:20.305Z,10.13
2023-05-19T01:10:46.804Z,10.06
2023-05-19T01:13:13.517Z,9.99
2023-05-19T01:15:58.464Z,10.00
2023-05-19T01:18:35.687Z,9.95
2023-05-19T01:21:49.144Z,9.98
2023-05-19T01:24:24.208Z,9.93
2023-05-19T01:27:10.060Z,9.96
2023-05-19T01:30:08.769Z,10.01
2023-05-19T01:32:36.877Z,9.91
2023-05-19T01:35:05.771Z,9.94
2023-05-19T01:51:32.786Z,8.63
2023-05-19T01:53:59.297Z,8.98
2023-05-19T01:56:48.817Z,9.30
2023-05-19T01:59:42.777Z,9.33
2023-05-19T02:02:24.599Z,9.32
2023-05-19T02:05:01.748Z,9.40
2023-05-19T02:07:46.667Z,9.49
2023-05-19T02:10:31.100Z,9.45
2023-05-19T02:13:01.292Z,9.51
2023-05-19T02:15:34.363Z,9.50
2023-05-19T02:18:04.129Z,9.40
2023-05-19T02:20:32.071Z,9.34
2023-05-19T02:22:58.719Z,9.31
2023-05-19T02:25:25.243Z,9.21
2023-05-19T02:27:53.025Z,9.27
2023-05-19T02:30:19.669Z,9.30
2023-05-19T02:32:46.848Z,9.32
2023-05-19T02:35:14.099Z,9.25
2023-05-19T02:37:42.337Z,9.24
2023-05-19T02:40:09.328Z,9.44
2023-05-19T02:42:35.904Z,9.36
2023-05-19T02:45:02.375Z,9.42
2023-05-19T02:47:28.869Z,9.39
2023-05-19T02:49:55.679Z,9.29
2023-05-19T02:52:22.087Z,9.09
2023-05-19T02:54:48.586Z,9.22
2023-05-19T02:57:15.058Z,9.30
2023-05-19T02:59:42.909Z,9.30
2023-05-19T03:02:09.522Z,9.47
2023-05-19T03:04:41.678Z,9.56
2023-05-19T03:07:10.194Z,9.53
2023-05-19T03:09:37.766Z,9.55
2023-05-19T03:12:04.654Z,9.70
2023-05-19T03:14:32.701Z,9.53
2023-05-19T03:17:00.132Z,9.48
2023-05-19T03:19:27.035Z,9.49
2023-05-19T03:21:53.494Z,9.61
2023-05-19T03:24:19.999Z,9.38
2023-05-19T03:26:46.480Z,9.47
2023-05-19T03:29:13.005Z,9.40
2023-05-19T03:31:39.536Z,9.46
2023-05-19T03:34:06.202Z,9.45
2023-05-19T03:36:32.685Z,9.53
2023-05-19T03:38:59.261Z,9.45
2023-05-19T03:41:25.969Z,9.37
2023-05-19T03:43:52.382Z,9.47
2023-05-19T03:46:19.029Z,9.27
2023-05-19T03:48:45.587Z,9.31
2023-05-19T03:51:12.258Z,9.40
2023-05-19T03:53:38.891Z,9.42
2023-05-19T03:56:07.554Z,9.27
2023-05-19T03:58:34.411Z,9.29
2023-05-19T04:01:00.898Z,9.32
2023-05-19T04:03:28.581Z,9.09
2023-05-19T04:05:55.115Z,9.24
2023-05-19T04:08:21.605Z,9.43
2023-05-19T04:10:48.218Z,9.48
2023-05-19T04:13:14.670Z,9.41
2023-05-19T04:15:41.557Z,9.51
2023-05-19T04:18:08.117Z,9.54
2023-05-19T04:20:34.705Z,9.73
2023-05-19T04:23:01.289Z,9.78
2023-05-19T04:25:28.386Z,9.77
2023-05-19T04:27:57.687Z,9.53
2023-05-19T04:30:24.793Z,9.27
2023-05-19T04:32:51.318Z,9.66
2023-05-19T04:35:17.869Z,9.53
2023-05-19T04:37:48.501Z,9.68
2023-05-19T04:40:15.982Z,9.69
2023-05-19T04:42:42.825Z,9.64
2023-05-19T04:45:09.989Z,9.84
2023-05-19T04:47:39.326Z,9.75
2023-05-19T04:50:07.488Z,9.91
2023-05-19T04:52:34.118Z,9.82
2023-05-19T04:55:00.626Z,10.03
2023-05-19T04:57:27.169Z,10.03
2023-05-19T04:59:59.760Z,9.84
2023-05-19T05:02:29.152Z,9.99
2023-05-19T05:04:56.745Z,9.80
2023-05-19T05:07:24.056Z,10.06
2023-05-19T05:09:51.030Z,10.33
2023-05-19T05:12:18.770Z,10.16
2023-05-19T05:14:45.796Z,10.38
2023-05-19T05:17:12.913Z,10.59
2023-05-19T05:19:39.911Z,10.36
2023-05-19T05:22:06.860Z,10.46
2023-05-19T05:24:33.589Z,10.52
2023-05-19T05:27:00.101Z,10.48
2023-05-19T05:29:26.685Z,10.63
2023-05-19T05:31:53.208Z,10.69
2023-05-19T05:34:19.778Z,10.76
2023-05-19T05:36:46.281Z,10.80
2023-05-19T05:39:13.120Z,10.92
2023-05-19T05:41:39.756Z,10.86
2023-05-19T05:44:06.236Z,11.05
2023-05-19T05:46:32.772Z,11.17
2023-05-19T05:48:59.508Z,11.17
2023-05-19T05:51:26.387Z,11.33
2023-05-19T05:53:54.701Z,11.23
2023-05-19T05:56:21.666Z,11.24
2023-05-19T05:58:48.199Z,11.16
2023-05-19T06:01:16.784Z,11.31
2023-05-19T06:03:45.015Z,11.50
2023-05-19T06:06:12.005Z,11.34
2023-05-19T06:08:38.486Z,11.63
2023-05-19T06:11:09.256Z,11.43
2023-05-19T06:13:36.749Z,11.60
2023-05-19T06:16:03.418Z,11.77
2023-05-19T06:18:30.027Z,11.79
2023-05-19T06:20:56.730Z,11.77
2023-05-19T06:23:23.913Z,11.89
2023-05-19T06:25:50.721Z,11.94
2023-05-19T06:28:17.240Z,12.18
2023-05-19T06:30:45.900Z,12.14
2023-05-19T06:33:12.345Z,12.24
2023-05-19T06:35:38.811Z,12.42
2023-05-19T06:38:05.285Z,12.40
2023-05-19T06:40:31.955Z,12.48
2023-05-19T06:42:58.629Z,12.42
2023-05-19T06:45:25.145Z,12.46
2023-05-19T06:47:51.785Z,12.21
2023-05-19T06:50:18.421Z,12.48
2023-05-19T06:52:47.016Z,12.45
2023-05-19T06:55:13.551Z,12.55
2023-05-19T06:57:39.997Z,12.42
2023-05-19T07:00:10.263Z,12.73
2023-05-19T07:02:36.793Z,12.83
2023-05-19T07:05:03.371Z,13.07
2023-05-19T07:07:30.967Z,13.16
2023-05-19T07:09:57.430Z,13.09
2023-05-19T07:12:24.716Z,13.35
2023-05-19T07:14:51.361Z,13.41
2023-05-19T07:17:17.862Z,13.15
2023-05-19T07:19:44.384Z,13.17
2023-05-19T07:22:11.031Z,13.33
2023-05-19T07:24:37.504Z,13.69
2023-05-19T07:27:04.295Z,13.95
2023-05-19T07:29:30.705Z,14.01
2023-05-19T07:31:58.204Z,14.22
2023-05-19T07:34:27.179Z,14.35
2023-05-19T07:36:53.737Z,15.39
2023-05-19T07:39:21.058Z,15.73
2023-05-19T07:41:52.810Z,16.68
2023-05-19T07:44:19.355Z,18.17
2023-05-19T07:46:45.832Z,17.84
2023-05-19T07:49:12.346Z,16.97
2023-05-19T07:51:38.817Z,16.54
2023-05-19T07:54:05.314Z,16.21
2023-05-19T07:56:31.894Z,16.08
2023-05-19T07:58:58.437Z,16.29
2023-05-19T08:01:24.924Z,16.48
2023-05-19T08:03:54.196Z,16.54
2023-05-19T08:06:21.328Z,16.53
2023-05-19T08:08:48.095Z,16.60
2023-05-19T08:11:14.532Z,16.52
2023-05-19T08:13:41.084Z,15.68
2023-05-19T08:16:07.924Z,16.29
2023-05-19T08:18:34.483Z,16.27
2023-05-19T08:21:01.475Z,16.35
2023-05-19T08:23:27.965Z,16.10
2023-05-19T08:25:54.447Z,16.32
2023-05-19T08:28:21.074Z,16.78
2023-05-19T08:30:47.531Z,16.48
2023-05-19T08:33:14.082Z,16.24
2023-05-19T08:35:40.543Z,16.38
2023-05-19T08:38:07.041Z,16.33
2023-05-19T08:40:35.923Z,16.35
2023-05-19T08:43:02.494Z,16.25
2023-05-19T08:45:30.059Z,16.53
2023-05-19T08:47:57.056Z,16.88
2023-05-19T08:50:26.440Z,17.21
2023-05-19T08:52:58.354Z,17.32
2023-05-19T08:55:46.893Z,17.37
2023-05-19T08:58:15.632Z,17.31
2023-05-19T09:00:43.985Z,17.57
2023-05-19T09:03:22.889Z,17.43
2023-05-19T09:05:50.802Z,17.82
2023-05-19T09:08:18.437Z,17.04
2023-05-19T09:10:45.002Z,17.36
2023-05-19T09:13:11.554Z,17.51
2023-05-19T09:15:39.179Z,16.65
2023-05-19T09:18:13.726Z,16.66
2023-05-19T09:20:42.659Z,16.79
2023-05-19T09:23:13.997Z,16.78
2023-05-19T09:25:51.255Z,16.45
2023-05-19T09:28:28.126Z,16.42
2023-05-19T09:31:15.063Z,16.39
2023-05-19T09:33:45.568Z,16.64
2023-05-19T09:36:12.761Z,16.42
2023-05-19T09:38:39.523Z,16.40
2023-05-19T09:41:07.231Z,16.90
2023-05-19T09:43:34.693Z,17.23
2023-05-19T09:46:11.249Z,17.54
2023-05-19T09:48:39.307Z,17.18
2023-05-19T09:51:08.071Z,17.45
2023-05-19T09:53:35.376Z,17.37
2023-05-19T09:56:04.119Z,16.76
2023-05-19T09:58:37.691Z,16.85
2023-05-19T10:01:08.721Z,17.05
2023-05-19T10:03:36.719Z,16.78
2023-05-19T10:06:05.191Z,17.19
2023-05-19T10:08:34.323Z,17.38
2023-05-19T10:11:01.704Z,17.37
2023-05-19T10:13:29.689Z,17.58
2023-05-19T10:15:59.651Z,18.14
2023-05-19T10:18:27.844Z,18.21
2023-05-19T10:20:54.667Z,18.21
2023-05-19T10:23:22.378Z,18.48
2023-05-19T10:25:50.650Z,18.30
2023-05-19T10:28:21.402Z,18.61
2023-05-19T10:30:50.889Z,18.30
2023-05-19T10:33:19.975Z,18.09
2023-05-19T10:35:58.795Z,18.08
2023-05-19T10:38:48.349Z,17.65
2023-05-19T10:41:32.051Z,17.91
2023-05-19T10:44:35.186Z,18.06
2023-05-19T10:47:01.840Z,18.13
2023-05-19T10:49:28.330Z,18.20
2023-05-19T10:51:57.978Z,18.13
2023-05-19T10:54:46.973Z,18.00
2023-05-19T10:57:17.674Z,18.03
2023-05-19T10:59:47.261Z,18.30
2023-05-19T11:02:43.328Z,18.03
2023-05-19T11:05:14.570Z,17.78
2023-05-19T11:07:43.148Z,17.70
2023-05-19T11:10:10.149Z,17.86
2023-05-19T11:12:42.663Z,18.05
2023-05-19T11:15:16.653Z,18.20
2023-05-19T11:17:48.357Z,18.37
2023-05-19T11:20:25.981Z,18.46
2023-05-19T11:23:08.986Z,18.50
2023-05-19T11:25:49.949Z,18.26
2023-05-19T11:28:19.655Z,18.07
2023-05-19T11:30:50.642Z,17.72
2023-05-19T11:33:20.743Z,17.79
2023-05-19T11:35:49.534Z,17.83
2023-05-19T11:38:18.537Z,17.80
2023-05-19T11:40:45.260Z,18.04
2023-05-19T11:43:11.949Z,18.11
2023-05-19T11:45:38.529Z,18.30
2023-05-19T11:48:05.656Z,18.24
2023-05-19T11:50:32.658Z,18.30
2023-05-19T11:53:01.034Z,18.40
2023-05-19T11:55:28.038Z,18.30
2023-05-19T12:00:30.775Z,18.10
2023-05-19T12:02:58.023Z,18.29
2023-05-19T12:05:26.346Z,18.14
2023-05-19T12:07:53.051Z,18.13
2023-05-19T12:10:31.138Z,18.04
2023-05-19T12:12:58.551Z,17.89
2023-05-19T12:15:25.685Z,17.75
2023-05-19T12:18:00.572Z,18.03
2023-05-19T12:20:28.975Z,17.88
2023-05-19T12:22:56.435Z,17.96
2023-05-19T12:25:28.108Z,17.87
2023-05-19T12:27:59.330Z,17.89
2023-05-19T12:30:30.302Z,17.91
2023-05-19T12:32:58.247Z,18.14
2023-05-19T12:35:30.194Z,18.01
2023-05-19T12:37:57.702Z,17.78
2023-05-19T12:40:24.237Z,17.85
2023-05-19T12:42:53.400Z,18.30
2023-05-19T12:45:23.357Z,17.93
2023-05-19T12:47:50.479Z,17.88
2023-05-19T12:50:16.983Z,17.96
2023-05-19T12:52:48.588Z,18.27
2023-05-19T12:55:16.627Z,18.36
2023-05-19T12:57:45.295Z,18.51
2023-05-19T13:00:22.732Z,18.41
2023-05-19T13:03:00.268Z,18.33
2023-05-19T13:05:28.492Z,18.30
2023-05-19T13:08:00.269Z,18.47
2023-05-19T13:10:27.843Z,18.29
2023-05-19T13:12:59.058Z,18.51
2023-05-19T13:15:27.084Z,18.74
2023-05-19T13:17:54.449Z,18.94
2023-05-19T13:20:21.787Z,18.74
2023-05-19T13:22:49.322Z,18.61
2023-05-19T13:25:16.408Z,18.39
2023-05-19T13:27:46.095Z,18.30
2023-05-19T13:30:12.683Z,18.70
2023-05-19T13:32:39.155Z,19.18
2023-05-19T13:35:06.097Z,19.21
2023-05-19T13:37:32.754Z,19.18
2023-05-19T13:39:59.280Z,19.40
2023-05-19T13:42:25.944Z,18.32
2023-05-19T13:44:58.910Z,18.27
2023-05-19T13:47:25.768Z,18.31
2023-05-19T13:49:52.765Z,18.24
2023-05-19T13:52:21.459Z,18.35
2023-05-19T13:54:48.554Z,18.40
2023-05-19T13:57:16.105Z,18.31
2023-05-19T13:59:53.463Z,18.35
2023-05-19T14:02:28.023Z,18.57
2023-05-19T14:04:54.616Z,18.61
2023-05-19T14:07:21.264Z,18.24
2023-05-19T14:09:47.775Z,18.57
2023-05-19T14:12:14.269Z,18.20
2023-05-19T14:14:40.736Z,17.91
2023-05-19T14:17:07.197Z,17.80
2023-05-19T14:19:33.674Z,17.95
2023-05-19T14:22:00.313Z,17.67
2023-05-19T14:24:26.827Z,18.04
2023-05-19T14:26:53.858Z,17.67
2023-05-19T14:29:20.392Z,17.87
2023-05-19T14:31:47.145Z,17.74
2023-05-19T14:34:17.788Z,17.63
2023-05-19T14:36:44.836Z,17.57
2023-05-19T14:39:11.962Z,17.49
2023-05-19T14:41:38.503Z,17.38
2023-05-19T14:44:05.618Z,17.48
2023-05-19T14:46:32.130Z,17.49
2023-05-19T14:48:58.659Z,17.70
2023-05-19T14:51:25.156Z,17.96
2023-05-19T14:53:51.628Z,18.33
2023-05-19T14:56:18.131Z,18.46
2023-05-19T14:58:44.633Z,18.91
2023-05-19T15:01:11.274Z,19.20
2023-05-19T15:03:37.825Z,18.90
2023-05-19T15:06:09.582Z,18.89
2023-05-19T15:08:37.814Z,18.69
2023-05-19T15:11:04.676Z,18.33
2023-05-19T15:13:31.074Z,18.14
2023-05-19T15:16:12.406Z,17.70
2023-05-19T15:18:42.790Z,17.88
2023-05-19T15:21:09.329Z,17.78
2023-05-19T15:23:35.788Z,17.98
2023-05-19T15:26:02.264Z,18.25
2023-05-19T15:28:28.759Z,18.13
2023-05-19T15:30:55.338Z,18.27
2023-05-19T15:33:21.889Z,18.10
2023-05-19T15:35:51.669Z,18.13
2023-05-19T15:38:21.263Z,18.14
2023-05-19T15:40:47.802Z,18.30
2023-05-19T15:43:14.364Z,18.23
2023-05-19T15:45:41.034Z,18.52
2023-05-19T15:48:07.757Z,18.77
2023-05-19T15:50:34.520Z,18.68
2023-05-19T15:53:01.210Z,18.09
2023-05-19T15:55:27.720Z,17.97
2023-05-19T15:57:54.222Z,18.01
2023-05-19T16:00:21.024Z,17.97
2023-05-19T16:02:47.804Z,17.85
2023-05-19T16:05:14.435Z,17.86
2023-05-19T16:07:42.163Z,17.91
2023-05-19T16:10:09.309Z,18.03
2023-05-19T16:12:36.677Z,17.81
2023-05-19T16:15:03.753Z,18.03
2023-05-19T16:17:30.449Z,18.12
2023-05-19T16:19:57.041Z,17.79
2023-05-19T16:22:24.884Z,17.68
2023-05-19T16:24:52.161Z,17.57
2023-05-19T16:27:18.885Z,17.55
2023-05-19T16:29:45.360Z,17.37
2023-05-19T16:32:12.715Z,17.40
2023-05-19T16:34:39.549Z,17.29
2023-05-19T16:37:06.001Z,17.52
2023-05-19T16:39:32.689Z,17.24
2023-05-19T16:41:59.167Z,17.14
2023-05-19T16:44:25.799Z,16.98
2023-05-19T16:46:52.434Z,16.72
2023-05-19T16:49:18.878Z,16.68
2023-05-19T16:51:46.821Z,16.59
2023-05-19T16:54:14.678Z,16.42
2023-05-19T16:56:41.286Z,16.64
2023-05-19T16:59:09.336Z,16.55
2023-05-19T17:01:35.882Z,16.46
2023-05-19T17:04:02.549Z,16.32
2023-05-19T17:06:29.476Z,16.39
2023-05-19T17:08:55.986Z,16.47
2023-05-19T17:11:22.657Z,16.57
2023-05-19T17:13:49.221Z,16.37
2023-05-19T17:16:16.033Z,16.38
2023-05-19T17:18:43.815Z,15.97
2023-05-19T17:21:10.822Z,16.01
2023-05-19T17:23:38.282Z,16.01
2023-05-19T17:26:05.063Z,16.07
2023-05-19T17:28:31.791Z,15.94
2023-05-19T17:30:58.310Z,15.82
2023-05-19T17:33:24.920Z,15.94
2023-05-19T17:35:51.465Z,15.98
2023-05-19T17:38:17.933Z,15.86
2023-05-19T17:40:44.677Z,15.71
2023-05-19T17:43:11.238Z,15.85
2023-05-19T17:45:37.698Z,15.76
2023-05-19T17:48:04.807Z,15.58
2023-05-19T17:50:31.429Z,15.74
2023-05-19T17:52:58.429Z,15.81
2023-05-19T17:55:29.883Z,15.35
2023-05-19T17:57:57.428Z,15.56
2023-05-19T18:00:25.320Z,15.75
2023-05-19T18:02:52.715Z,15.58
2023-05-19T18:05:20.078Z,15.91
2023-05-19T18:07:48.205Z,15.84
2023-05-19T18:10:16.590Z,15.45
2023-05-19T18:12:43.198Z,15.58
2023-05-19T18:15:10.253Z,15.69
2023-05-19T18:17:36.909Z,15.52
2023-05-19T18:20:03.704Z,15.33
2023-05-19T18:22:30.413Z,15.55
2023-05-19T18:24:57.655Z,15.24
2023-05-19T18:27:24.183Z,15.40
2023-05-19T18:29:50.770Z,15.36
2023-05-19T18:32:17.807Z,15.20
2023-05-19T18:34:44.425Z,15.36
2023-05-19T18:37:10.967Z,15.27
2023-05-19T18:39:37.585Z,14.91
2023-05-19T18:42:04.339Z,14.79
2023-05-19T18:44:30.887Z,14.89
2023-05-19T18:46:57.513Z,14.82
2023-05-19T18:49:25.088Z,14.86
2023-05-19T18:51:52.024Z,15.07
2023-05-19T18:54:19.583Z,15.26
2023-05-19T18:56:46.191Z,14.92
2023-05-19T18:59:12.867Z,14.75
2023-05-19T19:01:39.820Z,14.88
2023-05-19T19:04:06.522Z,14.72
2023-05-19T19:06:33.047Z,14.73
2023-05-19T19:09:09.202Z,14.58
2023-05-19T19:11:36.017Z,14.59
2023-05-19T19:14:02.505Z,14.66
2023-05-19T19:16:29.324Z,14.33
2023-05-19T19:18:55.935Z,14.52
2023-05-19T19:21:24.296Z,14.32
2023-05-19T19:23:55.848Z,14.33
2023-05-19T19:26:28.878Z,14.50
2023-05-19T19:28:56.745Z,14.43
2023-05-19T19:31:25.791Z,14.42
2023-05-19T19:33:58.985Z,14.50
2023-05-19T19:36:26.370Z,14.28
2023-05-19T19:38:53.036Z,14.30
2023-05-19T19:41:20.048Z,14.06
2023-05-19T19:43:46.952Z,14.28
2023-05-19T19:46:16.201Z,14.11
2023-05-19T19:48:43.106Z,13.98
2023-05-19T19:51:09.662Z,14.15
2023-05-19T19:53:36.216Z,14.24
2023-05-19T19:56:04.544Z,14.19
2023-05-19T19:58:31.197Z,13.99
2023-05-19T20:01:04.282Z,14.22
2023-05-19T20:03:31.886Z,14.19
2023-05-19T20:05:58.880Z,14.05
2023-05-19T20:08:26.451Z,14.05
2023-05-19T20:10:53.812Z,14.06
2023-05-19T20:13:20.753Z,14.11
2023-05-19T20:15:47.623Z,14.06
2023-05-19T20:18:14.595Z,14.06
2023-05-19T20:20:42.006Z,14.22
2023-05-19T20:23:08.827Z,14.19
2023-05-19T20:25:50.096Z,14.21
2023-05-19T20:28:23.165Z,13.84
2023-05-19T20:30:51.245Z,13.98
2023-05-19T20:33:17.761Z,13.97
2023-05-19T20:35:44.283Z,13.99
2023-05-19T20:38:11.019Z,13.95
2023-05-19T20:40:37.719Z,14.05
2023-05-19T20:43:05.868Z,13.77
2023-05-19T20:45:32.793Z,13.74
2023-05-19T20:47:59.691Z,13.69
2023-05-19T20:50:26.376Z,13.73
2023-05-19T20:52:53.028Z,13.60
2023-05-19T20:55:21.074Z,13.61
2023-05-19T20:57:47.596Z,13.63
2023-05-19T21:00:14.508Z,13.73
2023-05-19T21:02:41.133Z,13.74
2023-05-19T21:05:08.184Z,13.65
2023-05-19T21:07:37.120Z,13.60
2023-05-19T21:10:03.858Z,13.59
2023-05-19T21:12:34.120Z,13.44
2023-05-19T21:15:01.643Z,13.54
2023-05-19T21:17:28.263Z,13.49
2023-05-19T21:19:59.575Z,13.43
2023-05-19T21:22:27.192Z,13.46
2023-05-19T21:24:54.540Z,13.48
2023-05-19T21:27:21.551Z,13.55
2023-05-19T21:29:52.324Z,13.49
2023-05-19T21:32:18.957Z,13.42
2023-05-19T21:34:45.394Z,13.47
2023-05-19T21:37:12.298Z,13.46
2023-05-19T21:39:38.776Z,13.35
2023-05-19T21:42:06.438Z,13.37
2023-05-19T21:44:32.962Z,13.38
2023-05-19T21:46:59.574Z,13.27
2023-05-19T21:49:26.115Z,13.28
2023-05-19T21:51:55.125Z,13.15
2023-05-19T21:54:21.590Z,13.05
2023-05-19T21:56:48.060Z,13.14
2023-05-19T21:59:14.619Z,13.18
2023-05-19T22:01:42.495Z,13.16
2023-05-19T22:04:09.685Z,13.12
2023-05-19T22:06:36.408Z,13.14
2023-05-19T22:09:02.876Z,13.07
2023-05-19T22:11:32.083Z,12.94
2023-05-19T22:13:58.561Z,12.88
2023-05-19T22:16:25.426Z,12.97
2023-05-19T22:18:52.162Z,12.95
2023-05-19T22:21:18.726Z,12.98
2023-05-19T22:23:45.218Z,12.82
2023-05-19T22:26:11.685Z,12.90
2023-05-19T22:28:38.334Z,12.94
2023-05-19T22:31:04.990Z,12.81
2023-05-19T22:33:31.568Z,12.72
2023-05-19T22:35:58.053Z,12.66
2023-05-19T22:38:24.530Z,12.72
2023-05-19T22:40:53.067Z,12.69
2023-05-19T22:43:19.541Z,12.82
2023-05-19T22:45:46.241Z,12.73
2023-05-19T22:48:12.711Z,12.81
2023-05-19T22:50:39.225Z,12.59
2023-05-19T22:53:05.864Z,12.61
2023-05-19T22:55:32.529Z,12.61
2023-05-19T22:57:59.459Z,12.64
2023-05-19T23:01:08.971Z,12.48
2023-05-19T23:03:35.596Z,12.44
2023-05-19T23:06:02.144Z,12.48
2023-05-19T23:08:28.673Z,12.45
2023-05-19T23:10:59.863Z,12.38
2023-05-19T23:13:26.359Z,12.29
2023-05-19T23:15:52.810Z,12.12
2023-05-19T23:18:19.516Z,12.34
2023-05-19T23:20:45.976Z,12.20
2023-05-19T23:23:12.607Z,12.18
2023-05-19T23:25:39.079Z,12.15
2023-05-19T23:28:05.684Z,12.13
2023-05-19T23:30:33.023Z,12.00
2023-05-19T23:32:59.503Z,12.11
2023-05-19T23:35:26.037Z,12.11
2023-05-19T23:37:53.114Z,12.13
2023-05-19T23:40:19.688Z,12.09
2023-05-19T23:42:46.424Z,12.16
2023-05-19T23:45:12.889Z,12.19
2023-05-19T23:47:39.442Z,11.98
2023-05-19T23:50:06.333Z,12.02
2023-05-19T23:52:32.832Z,12.10
2023-05-19T23:54:59.463Z,11.91
2023-05-19T23:57:26.238Z,11.97
2023-05-19T23:59:52.658Z,11.96
